createdAt,value
2022-10-21T00:00:40.443Z,32.90
2022-10-21T00:03:07.913Z,36.35
2022-10-21T00:05:35.029Z,32.58
2022-10-21T00:08:02.228Z,32.95
2022-10-21T00:10:29.456Z,31.08
2022-10-21T00:12:56.763Z,31.35
2022-10-21T00:15:24.034Z,28.85
2022-10-21T00:17:51.381Z,30.67
2022-10-21T00:20:19.027Z,31.55
2022-10-21T00:22:46.374Z,27.95
2022-10-21T00:25:13.661Z,27.65
2022-10-21T00:27:40.892Z,26.17
2022-10-21T00:30:09.037Z,24.80
2022-10-21T00:32:40.051Z,28.10
2022-10-21T00:35:07.814Z,26.05
2022-10-21T00:37:35.249Z,25.67
2022-10-21T00:40:02.583Z,25.00
2022-10-21T00:42:35.461Z,22.65
2022-10-21T00:45:05.705Z,24.70
2022-10-21T00:50:37.421Z,21.50
2022-10-21T00:53:11.203Z,20.45
2022-10-21T00:55:43.947Z,20.65
2022-10-21T00:58:11.312Z,17.00
2022-10-21T01:00:38.677Z,15.25
2022-10-21T01:03:07.110Z,22.58
2022-10-21T01:05:36.351Z,16.35
2022-10-21T01:08:03.747Z,14.80
2022-10-21T01:10:31.132Z,15.75
2022-10-21T01:13:33.626Z,15.45
2022-10-21T01:16:24.866Z,19.50
2022-10-21T01:19:02.114Z,19.00
2022-10-21T01:21:38.689Z,21.52
2022-10-21T01:24:24.850Z,16.88
2022-10-21T01:27:29.533Z,16.70
2022-10-21T01:30:16.698Z,17.02
2022-10-21T01:36:04.078Z,16.47
2022-10-21T01:38:31.294Z,16.15
2022-10-21T01:41:16.496Z,21.98
2022-10-21T01:43:55.504Z,15.25
2022-10-21T01:46:50.389Z,18.27
2022-10-21T01:51:51.891Z,17.70
2022-10-21T01:54:28.970Z,14.13
2022-10-21T01:56:57.814Z,16.48
2022-10-21T01:59:29.106Z,17.35
2022-10-21T02:01:57.364Z,17.35
2022-10-21T02:04:26.825Z,18.88
2022-10-21T02:06:54.145Z,17.45
2022-10-21T02:09:21.480Z,15.98
2022-10-21T02:11:52.130Z,14.55
2022-10-21T02:14:25.015Z,15.65
2022-10-21T02:16:54.466Z,18.13
2022-10-21T02:19:21.943Z,17.48
2022-10-21T02:21:51.567Z,13.88
2022-10-21T02:24:36.450Z,15.93
2022-10-21T02:27:03.682Z,15.50
2022-10-21T02:29:36.188Z,17.52
2022-10-21T02:32:28.045Z,13.43
2022-10-21T02:35:24.394Z,14.82
2022-10-21T02:38:25.752Z,16.85
2022-10-21T02:41:01.824Z,18.83
2022-10-21T02:43:28.897Z,14.18
2022-10-21T02:46:01.882Z,11.73
2022-10-21T02:48:29.109Z,13.75
2022-10-21T02:50:56.344Z,18.05
2022-10-21T02:53:23.534Z,12.40
2022-10-21T02:55:50.588Z,12.02
2022-10-21T02:58:17.672Z,11.07
2022-10-21T03:00:45.033Z,12.88
2022-10-21T03:03:12.298Z,13.77
2022-10-21T03:05:39.499Z,12.90
2022-10-21T03:08:06.897Z,11.68
2022-10-21T03:10:34.144Z,13.48
2022-10-21T03:13:01.653Z,13.10
2022-10-21T03:15:28.857Z,11.02
2022-10-21T03:17:56.139Z,13.23
2022-10-21T03:20:23.214Z,10.60
2022-10-21T03:22:50.385Z,17.05
2022-10-21T03:25:17.680Z,9.98
2022-10-21T03:27:44.931Z,13.85
2022-10-21T03:30:12.402Z,14.05
2022-10-21T03:32:39.642Z,12.13
2022-10-21T03:35:07.819Z,14.70
2022-10-21T03:37:35.129Z,11.48
2022-10-21T03:40:02.593Z,13.93
2022-10-21T03:42:29.815Z,15.23
2022-10-21T03:44:56.967Z,12.25
2022-10-21T03:47:24.099Z,12.05
2022-10-21T03:49:51.331Z,16.35
2022-10-21T03:52:18.675Z,14.80
2022-10-21T03:54:45.783Z,9.80
2022-10-21T03:57:13.121Z,15.48
2022-10-21T03:59:40.377Z,14.43
2022-10-21T04:02:07.715Z,11.52
2022-10-21T04:04:34.969Z,10.48
2022-10-21T04:07:02.253Z,11.70
2022-10-21T04:09:29.281Z,9.38
2022-10-21T04:11:56.361Z,11.93
2022-10-21T04:14:23.730Z,12.80
2022-10-21T04:17:02.052Z,11.93
2022-10-21T04:19:29.712Z,18.38
2022-10-21T04:21:56.790Z,9.85
2022-10-21T04:24:24.000Z,10.43
2022-10-21T04:26:51.221Z,8.27
2022-10-21T04:29:18.567Z,15.45
2022-10-21T04:31:45.863Z,13.30
2022-10-21T04:34:13.143Z,10.18
2022-10-21T04:36:40.872Z,8.02
2022-10-21T04:39:08.377Z,7.47
2022-10-21T04:41:35.742Z,9.35
2022-10-21T04:44:03.962Z,6.40
2022-10-21T04:46:31.257Z,11.23
2022-10-21T04:48:58.304Z,9.57
2022-10-21T04:51:27.825Z,7.72
2022-10-21T04:53:55.235Z,8.52
2022-10-21T04:56:22.566Z,10.18
2022-10-21T04:58:49.935Z,8.20
2022-10-21T05:01:17.245Z,7.70
2022-10-21T05:03:44.488Z,7.68
2022-10-21T05:06:11.770Z,9.00
2022-10-21T05:08:38.987Z,8.15
2022-10-21T05:11:06.364Z,8.75
2022-10-21T05:13:33.969Z,6.88
2022-10-21T05:16:02.917Z,10.98
2022-10-21T05:18:31.041Z,7.93
2022-10-21T05:20:58.779Z,9.57
2022-10-21T05:23:26.960Z,6.22
2022-10-21T05:25:54.017Z,5.90
2022-10-21T05:28:21.894Z,9.40
2022-10-21T05:30:49.217Z,6.85
2022-10-21T05:33:16.570Z,6.20
2022-10-21T05:35:44.778Z,6.35
2022-10-21T05:38:11.825Z,7.38
2022-10-21T05:40:38.900Z,9.02
2022-10-21T05:43:05.859Z,7.85
2022-10-21T05:45:32.940Z,7.30
2022-10-21T05:47:59.934Z,5.82
2022-10-21T05:50:26.950Z,6.22
2022-10-21T05:52:58.640Z,8.20
2022-10-21T05:55:25.881Z,6.53
2022-10-21T05:57:52.993Z,7.72
2022-10-21T06:00:20.033Z,7.35
2022-10-21T06:02:47.095Z,10.98
2022-10-21T06:05:14.338Z,12.60
2022-10-21T06:07:41.624Z,8.63
2022-10-21T06:10:10.079Z,9.60
2022-10-21T06:12:37.048Z,9.43
2022-10-21T06:15:04.678Z,6.45
2022-10-21T06:17:31.760Z,6.95
2022-10-21T06:19:58.798Z,9.02
2022-10-21T06:22:25.996Z,8.80
2022-10-21T06:24:52.978Z,7.65
2022-10-21T06:27:20.496Z,10.15
2022-10-21T06:29:47.685Z,6.22
2022-10-21T06:32:15.242Z,5.28
2022-10-21T06:34:42.423Z,10.07
2022-10-21T06:37:09.539Z,9.60
2022-10-21T06:39:36.497Z,9.10
2022-10-21T06:42:03.654Z,7.57
2022-10-21T06:44:30.627Z,7.47
2022-10-21T06:46:57.676Z,9.82
2022-10-21T06:49:24.796Z,6.97
2022-10-21T06:51:52.147Z,9.65
2022-10-21T06:54:19.334Z,7.20
2022-10-21T06:56:46.416Z,10.13
2022-10-21T06:59:13.590Z,9.80
2022-10-21T07:01:59.079Z,7.68
2022-10-21T07:04:27.729Z,6.32
2022-10-21T07:06:55.186Z,9.38
2022-10-21T07:09:23.851Z,5.47
2022-10-21T07:11:51.218Z,8.43
2022-10-21T07:14:18.600Z,8.27
2022-10-21T07:16:45.913Z,10.98
2022-10-21T07:19:16.407Z,6.88
2022-10-21T07:21:44.828Z,6.22
2022-10-21T07:24:12.344Z,6.22
2022-10-21T07:26:40.247Z,8.23
2022-10-21T07:29:07.787Z,13.10
2022-10-21T07:31:38.061Z,8.32
2022-10-21T07:34:11.201Z,6.43
2022-10-21T07:36:44.072Z,7.00
2022-10-21T07:39:14.063Z,12.50
2022-10-21T07:41:46.641Z,8.98
2022-10-21T07:44:14.255Z,8.05
2022-10-21T07:46:42.667Z,8.15
2022-10-21T07:49:11.616Z,12.38
2022-10-21T07:51:39.987Z,5.22
2022-10-21T07:54:08.103Z,7.70
2022-10-21T07:56:47.439Z,5.72
2022-10-21T07:59:16.561Z,7.80
2022-10-21T08:01:45.981Z,5.38
2022-10-21T08:04:16.235Z,7.97
2022-10-21T08:06:44.774Z,7.20
2022-10-21T08:09:13.351Z,10.52
2022-10-21T08:11:40.777Z,9.98
2022-10-21T08:14:09.878Z,10.20
2022-10-21T08:16:37.717Z,10.35
2022-10-21T08:19:06.269Z,8.00
2022-10-21T08:21:33.487Z,9.73
2022-10-21T08:24:03.481Z,12.00
2022-10-21T08:26:30.765Z,10.75
2022-10-21T08:31:25.709Z,16.35
2022-10-21T08:33:52.826Z,9.38
2022-10-21T08:36:22.294Z,9.30
2022-10-21T08:38:49.530Z,9.68
2022-10-21T08:41:31.596Z,9.18
2022-10-21T08:44:25.644Z,9.63
2022-10-21T08:46:59.786Z,14.13
2022-10-21T08:52:05.865Z,11.73
2022-10-21T08:54:51.886Z,10.55
2022-10-21T08:57:20.026Z,10.93
2022-10-21T08:59:47.489Z,12.25
2022-10-21T09:02:17.217Z,14.15
2022-10-21T09:04:48.653Z,16.63
2022-10-21T09:08:03.956Z,12.82
2022-10-21T09:10:54.911Z,13.10
2022-10-21T09:14:01.073Z,11.73
2022-10-21T09:16:34.110Z,14.52
2022-10-21T09:19:10.027Z,15.98
2022-10-21T09:22:16.394Z,11.98
2022-10-21T09:25:22.349Z,12.70
2022-10-21T09:27:56.099Z,11.13
2022-10-21T09:30:24.977Z,13.00
2022-10-21T09:32:59.987Z,12.18
2022-10-21T09:35:47.021Z,7.88
2022-10-21T09:38:27.442Z,12.43
2022-10-21T09:41:01.605Z,11.88
2022-10-21T09:45:57.094Z,11.27
2022-10-21T09:49:14.343Z,10.38
2022-10-21T09:51:37.969Z,13.48
2022-10-21T09:54:04.915Z,15.07
2022-10-21T09:56:40.962Z,15.43
2022-10-21T09:59:14.018Z,14.15
2022-10-21T10:01:43.414Z,11.98
2022-10-21T10:04:31.920Z,13.75
2022-10-21T10:07:19.483Z,14.23
2022-10-21T10:09:48.549Z,12.13
2022-10-21T10:12:26.803Z,13.35
2022-10-21T10:14:53.981Z,11.40
2022-10-21T10:17:40.001Z,12.63
2022-10-21T10:20:16.859Z,14.63
2022-10-21T10:22:58.470Z,11.30
2022-10-21T10:25:33.930Z,14.75
2022-10-21T10:28:15.851Z,8.23
2022-10-21T10:30:42.856Z,11.80
2022-10-21T10:33:17.856Z,9.32
2022-10-21T10:35:53.767Z,8.32
2022-10-21T10:38:45.404Z,8.55
2022-10-21T10:41:16.264Z,6.13
2022-10-21T10:43:53.883Z,8.73
2022-10-21T10:46:31.242Z,9.88
2022-10-21T10:49:21.502Z,9.02
2022-10-21T10:52:04.544Z,9.32
2022-10-21T10:54:31.939Z,8.90
2022-10-21T10:57:03.922Z,6.70
2022-10-21T10:59:30.918Z,6.82
2022-10-21T11:02:12.379Z,10.23
2022-10-21T11:05:00.349Z,18.02
2022-10-21T11:08:08.598Z,5.90
2022-10-21T11:10:46.284Z,9.27
2022-10-21T11:13:18.666Z,10.35
2022-10-21T11:16:00.067Z,8.23
2022-10-21T11:18:47.564Z,6.20
2022-10-21T11:21:42.268Z,7.47
2022-10-21T11:24:17.041Z,7.68
2022-10-21T11:26:54.488Z,7.47
2022-10-21T11:29:29.921Z,7.15
2022-10-21T11:32:19.334Z,9.32
2022-10-21T11:35:08.907Z,7.88
2022-10-21T11:37:41.840Z,7.47
2022-10-21T11:40:19.745Z,6.07
2022-10-21T11:42:52.028Z,6.38
2022-10-21T11:45:54.467Z,10.05
2022-10-21T11:48:38.794Z,9.07
2022-10-21T11:51:31.168Z,6.88
2022-10-21T11:54:13.289Z,5.15
2022-10-21T11:56:56.008Z,6.90
2022-10-21T11:59:39.542Z,7.00
2022-10-21T12:02:16.933Z,8.03
2022-10-21T12:05:11.738Z,7.57
2022-10-21T12:10:21.216Z,10.13
2022-10-21T12:12:51.523Z,9.02
2022-10-21T12:15:22.795Z,6.97
2022-10-21T12:17:50.962Z,4.20
2022-10-21T12:20:27.154Z,3.97
2022-10-21T12:23:03.775Z,5.88
2022-10-21T12:25:44.096Z,10.35
2022-10-21T12:28:21.941Z,4.68
2022-10-21T12:31:13.326Z,5.72
2022-10-21T12:33:45.734Z,5.57
2022-10-21T12:36:21.068Z,7.28
2022-10-21T12:38:54.358Z,5.95
2022-10-21T12:41:26.176Z,6.07
2022-10-21T12:44:18.044Z,7.32
2022-10-21T12:46:53.807Z,3.80
2022-10-21T12:49:33.835Z,5.85
2022-10-21T12:52:11.685Z,3.97
2022-10-21T12:54:49.748Z,2.33
2022-10-21T12:57:30.656Z,3.33
2022-10-21T13:00:28.116Z,6.55
2022-10-21T13:03:10.469Z,3.55
2022-10-21T13:05:37.448Z,4.57
2022-10-21T13:08:28.615Z,3.90
2022-10-21T13:11:06.894Z,4.45
2022-10-21T13:13:38.345Z,7.10
2022-10-21T13:16:20.343Z,5.43
2022-10-21T13:19:15.116Z,2.63
2022-10-21T13:21:49.650Z,3.28
2022-10-21T13:24:24.285Z,4.93
2022-10-21T13:26:59.578Z,5.15
2022-10-21T13:29:38.756Z,4.43
2022-10-21T13:32:36.443Z,1.92
2022-10-21T13:35:21.631Z,4.72
2022-10-21T13:38:03.608Z,2.35
2022-10-21T13:40:45.140Z,4.20
2022-10-21T13:43:17.730Z,5.90
2022-10-21T13:45:50.758Z,4.38
2022-10-21T13:48:24.438Z,3.08
2022-10-21T13:50:56.224Z,3.38
2022-10-21T13:53:36.635Z,3.25
2022-10-21T13:56:07.313Z,3.42
2022-10-21T13:58:41.352Z,5.22
2022-10-21T14:01:12.477Z,4.28
2022-10-21T14:03:40.783Z,7.22
2022-10-21T14:06:09.772Z,3.45
2022-10-21T14:08:44.001Z,2.75
2022-10-21T14:11:43.622Z,6.47
2022-10-21T14:14:15.401Z,4.18
2022-10-21T14:16:48.662Z,4.35
2022-10-21T14:19:20.097Z,4.93
2022-10-21T14:21:52.621Z,2.58
2022-10-21T14:24:37.053Z,3.40
2022-10-21T14:29:35.178Z,3.05
2022-10-21T14:32:03.620Z,5.30
2022-10-21T14:34:34.004Z,4.65
2022-10-21T14:37:09.301Z,3.45
2022-10-21T14:39:39.626Z,7.18
2022-10-21T14:42:17.673Z,3.58
2022-10-21T14:44:46.030Z,2.45
2022-10-21T14:47:26.315Z,2.75
2022-10-21T14:49:59.172Z,1.95
2022-10-21T14:52:44.717Z,9.80
2022-10-21T14:55:15.881Z,6.00
2022-10-21T14:57:48.446Z,1.55
2022-10-21T15:00:34.878Z,8.25
2022-10-21T15:03:02.541Z,3.10
2022-10-21T15:05:48.767Z,4.40
2022-10-21T15:08:22.761Z,2.90
2022-10-21T15:11:00.454Z,7.30
2022-10-21T15:13:27.528Z,4.78
2022-10-21T15:15:57.030Z,3.58
2022-10-21T15:18:32.304Z,3.15
2022-10-21T15:21:03.483Z,5.57
2022-10-21T15:23:52.251Z,3.90
2022-10-21T15:26:24.545Z,2.50
2022-10-21T15:28:53.294Z,1.95
2022-10-21T15:31:23.673Z,3.38
2022-10-21T15:33:52.830Z,2.85
2022-10-21T15:36:20.768Z,9.95
2022-10-21T15:38:48.461Z,4.55
2022-10-21T15:41:26.299Z,2.30
2022-10-21T15:44:05.251Z,4.43
2022-10-21T15:46:46.162Z,3.78
2022-10-21T15:49:18.776Z,4.70
2022-10-21T15:51:46.625Z,3.05
2022-10-21T15:54:15.452Z,5.95
2022-10-21T15:56:44.501Z,5.32
2022-10-21T15:59:17.941Z,4.93
2022-10-21T16:01:45.494Z,4.63
2022-10-21T16:04:12.909Z,1.90
2022-10-21T16:06:45.752Z,6.10
2022-10-21T16:09:19.704Z,5.10
2022-10-21T16:12:01.257Z,5.03
2022-10-21T16:14:30.389Z,5.90
2022-10-21T16:16:58.782Z,3.20
2022-10-21T16:19:26.784Z,4.35
2022-10-21T16:21:53.834Z,6.80
2022-10-21T16:24:20.909Z,5.82
2022-10-21T16:26:49.451Z,21.67
2022-10-21T16:29:24.765Z,12.05
2022-10-21T16:31:52.091Z,10.90
2022-10-21T16:34:19.624Z,10.40
2022-10-21T16:36:46.811Z,13.80
2022-10-21T16:39:19.632Z,19.02
2022-10-21T16:41:46.651Z,6.93
2022-10-21T16:44:14.147Z,19.38
2022-10-21T16:46:46.162Z,23.77
2022-10-21T16:49:15.654Z,37.47
2022-10-21T16:51:46.462Z,16.95
2022-10-21T16:54:14.100Z,24.63
2022-10-21T16:56:41.795Z,13.02
2022-10-21T16:59:08.811Z,14.43
2022-10-21T17:01:35.969Z,14.63
2022-10-21T17:04:03.082Z,10.60
2022-10-21T17:06:30.317Z,16.67
2022-10-21T17:08:58.182Z,13.15
2022-10-21T17:11:38.303Z,11.15
2022-10-21T17:14:07.376Z,9.75
2022-10-21T17:16:34.446Z,5.05
2022-10-21T17:19:01.615Z,7.78
2022-10-21T17:21:31.331Z,4.05
2022-10-21T17:24:00.012Z,6.25
2022-10-21T17:26:27.436Z,8.35
2022-10-21T17:28:54.750Z,4.00
2022-10-21T17:31:25.130Z,6.10
2022-10-21T17:33:53.564Z,5.07
2022-10-21T17:36:20.912Z,5.68
2022-10-21T17:38:48.162Z,3.28
2022-10-21T17:41:18.802Z,4.40
2022-10-21T17:43:45.934Z,5.40
2022-10-21T17:50:00.400Z,5.40
2022-10-21T17:52:27.529Z,5.80
2022-10-21T17:54:54.822Z,7.47
2022-10-21T17:57:23.705Z,10.82
2022-10-21T17:59:53.441Z,11.98
2022-10-21T18:02:20.956Z,16.05
2022-10-21T18:04:48.431Z,12.32
2022-10-21T18:07:17.900Z,15.57
2022-10-21T18:09:45.247Z,14.35
2022-10-21T18:12:13.882Z,11.85
2022-10-21T18:14:41.216Z,5.22
2022-10-21T18:17:08.820Z,9.52
2022-10-21T18:19:36.539Z,5.05
2022-10-21T18:22:04.346Z,7.90
2022-10-21T18:24:31.842Z,9.18
2022-10-21T18:26:59.113Z,9.43
2022-10-21T18:29:26.400Z,7.72
2022-10-21T18:31:53.628Z,6.13
2022-10-21T18:34:20.837Z,5.13
2022-10-21T18:36:48.754Z,3.88
2022-10-21T18:39:16.198Z,4.30
2022-10-21T18:41:43.558Z,4.95
2022-10-21T18:44:13.646Z,8.07
2022-10-21T18:46:43.051Z,5.97
2022-10-21T18:49:15.183Z,7.55
2022-10-21T18:51:42.685Z,6.10
2022-10-21T18:54:11.301Z,8.10
2022-10-21T18:56:38.516Z,6.85
2022-10-21T18:59:06.062Z,8.65
2022-10-21T19:01:33.396Z,6.47
2022-10-21T19:04:01.099Z,6.93
2022-10-21T19:06:36.708Z,5.00
2022-10-21T19:09:08.077Z,5.47
2022-10-21T19:11:35.483Z,11.30
2022-10-21T19:14:03.528Z,5.72
2022-10-21T19:16:30.871Z,4.35
2022-10-21T19:18:58.350Z,8.77
2022-10-21T19:21:25.788Z,7.05
2022-10-21T19:23:53.769Z,4.80
2022-10-21T19:26:23.176Z,5.75
2022-10-21T19:28:51.062Z,6.10
2022-10-21T19:31:21.218Z,9.73
2022-10-21T19:33:48.582Z,10.90
2022-10-21T19:36:15.687Z,6.90
2022-10-21T19:38:44.746Z,9.35
2022-10-21T19:41:16.027Z,6.30
2022-10-21T19:43:43.898Z,11.95
2022-10-21T19:46:18.914Z,9.88
2022-10-21T19:48:49.006Z,8.35
2022-10-21T19:51:21.231Z,7.13
2022-10-21T19:53:51.116Z,9.20
2022-10-21T19:56:23.742Z,10.07
2022-10-21T19:58:55.812Z,8.25
2022-10-21T20:01:25.536Z,6.97
2022-10-21T20:03:54.236Z,9.70
2022-10-21T20:06:25.365Z,8.90
2022-10-21T20:08:58.669Z,8.95
2022-10-21T20:11:26.799Z,7.37
2022-10-21T20:13:55.887Z,8.02
2022-10-21T20:16:26.924Z,7.32
2022-10-21T20:18:58.539Z,9.27
2022-10-21T20:21:26.023Z,11.43
2022-10-21T20:23:53.991Z,12.23
2022-10-21T20:26:22.768Z,9.45
2022-10-21T20:28:51.269Z,7.38
2022-10-21T20:31:18.768Z,7.32
2022-10-21T20:33:50.194Z,7.50
2022-10-21T20:36:25.795Z,6.40
2022-10-21T20:38:54.813Z,8.60
2022-10-21T20:41:26.166Z,8.30
2022-10-21T20:43:55.406Z,6.63
2022-10-21T20:46:25.694Z,6.25
2022-10-21T20:48:54.460Z,6.80
2022-10-21T20:51:26.225Z,7.93
2022-10-21T20:54:00.127Z,6.65
2022-10-21T20:56:30.167Z,8.18
2022-10-21T20:58:59.843Z,7.55
2022-10-21T21:01:31.261Z,8.93
2022-10-21T21:04:01.593Z,5.75
2022-10-21T21:06:31.616Z,8.85
2022-10-21T21:09:38.118Z,5.85
2022-10-21T21:11:47.596Z,6.20
2022-10-21T21:14:14.840Z,7.38
2022-10-21T21:16:42.142Z,9.65
2022-10-21T21:19:12.266Z,10.95
2022-10-21T21:21:40.448Z,9.70
2022-10-21T21:24:07.974Z,10.23
2022-10-21T21:26:39.772Z,9.57
2022-10-21T21:29:10.284Z,7.72
2022-10-21T21:31:41.120Z,11.75
2022-10-21T21:34:09.022Z,9.55
2022-10-21T21:36:37.005Z,8.93
2022-10-21T21:39:05.914Z,9.88
2022-10-21T21:41:33.688Z,9.68
2022-10-21T21:44:00.871Z,9.38
2022-10-21T21:46:28.159Z,13.48
2022-10-21T21:49:04.063Z,9.20
2022-10-21T21:51:34.556Z,10.32
2022-10-21T21:54:02.136Z,9.32
2022-10-21T21:56:29.417Z,8.30
2022-10-21T21:58:58.230Z,10.95
2022-10-21T22:01:30.226Z,11.25
2022-10-21T22:03:58.190Z,11.00
2022-10-21T22:06:28.728Z,12.63
2022-10-21T22:08:56.127Z,10.07
2022-10-21T22:11:25.321Z,11.85
2022-10-21T22:13:53.031Z,16.13
2022-10-21T22:16:22.395Z,11.30
2022-10-21T22:18:49.615Z,11.60
2022-10-21T22:21:18.868Z,12.35
2022-10-21T22:23:47.686Z,10.05
2022-10-21T22:26:15.783Z,11.95
2022-10-21T22:28:43.842Z,8.63
2022-10-21T22:31:13.848Z,11.23
2022-10-21T22:33:41.657Z,12.68
2022-10-21T22:36:10.000Z,11.77
2022-10-21T22:38:37.130Z,13.77
2022-10-21T22:41:08.582Z,10.35
2022-10-21T22:43:38.563Z,15.18
2022-10-21T22:46:28.856Z,12.32
2022-10-21T22:48:52.681Z,11.98
2022-10-21T22:51:19.951Z,13.05
2022-10-21T22:53:53.336Z,14.55
2022-10-21T22:56:23.693Z,9.73
2022-10-21T22:58:50.827Z,16.23
2022-10-21T23:01:17.953Z,22.65
2022-10-21T23:03:45.174Z,12.88
2022-10-21T23:06:12.349Z,14.07
2022-10-21T23:08:39.482Z,14.50
2022-10-21T23:11:06.635Z,12.68
2022-10-21T23:13:34.032Z,12.95
2022-10-21T23:16:01.134Z,14.25
2022-10-21T23:18:28.307Z,12.38
2022-10-21T23:20:55.474Z,18.05
2022-10-21T23:23:22.533Z,13.85
2022-10-21T23:25:49.662Z,15.40
2022-10-21T23:30:45.578Z,17.20
2022-10-21T23:33:13.867Z,17.42
2022-10-21T23:35:41.288Z,19.23
2022-10-21T23:38:08.439Z,12.95
2022-10-21T23:40:35.852Z,15.57
2022-10-21T23:43:03.164Z,17.23
2022-10-21T23:45:30.296Z,14.77
2022-10-21T23:47:57.334Z,17.70
2022-10-21T23:50:24.414Z,21.90
2022-10-21T23:52:51.463Z,12.77
2022-10-21T23:55:18.759Z,23.60
2022-10-21T23:57:46.221Z,18.65
